Time;durP1;ratioP1;P1;durP2;ratioP2;P2;SDS_P1;SDS_P2;PMS_P1;PMS_P2;Temp;Humidity;BMP_temperature;BMP_pressure;BME280_temperature;BME280_humidity;BME280_pressure;Samples;Min_cycle;Max_cycle;Signal;HPM_P1;HPM_P2
2023/12/17 00:00:35;;;;;;;154.13;116.47;;;;;;;;;;5009484;28;20106;-73
2023/12/17 00:03:01;;;;;;;159.05;115.53;;;;;;;;;;5014410;28;20106;-72
2023/12/17 00:05:26;;;;;;;206.23;155.27;;;;;;;;;;5005713;28;20029;-73
2023/12/17 00:07:51;;;;;;;272.80;214.38;;;;;;;;;;5006934;28;20046;-74
2023/12/17 00:10:18;;;;;;;338.88;284.00;;;;;;;;;;5006743;28;20022;-75
2023/12/17 00:12:43;;;;;;;296.70;242.57;;;;;;;;;;5008303;28;20167;-73
2023/12/17 00:15:10;;;;;;;227.65;180.70;;;;;;;;;;5019489;28;20464;-73
2023/12/17 00:17:35;;;;;;;149.38;117.07;;;;;;;;;;5020689;28;20307;-75
2023/12/17 00:20:00;;;;;;;153.02;119.43;;;;;;;;;;5006015;28;20025;-72
2023/12/17 00:22:26;;;;;;;138.60;111.75;;;;;;;;;;5006795;28;20037;-73
2023/12/17 00:24:52;;;;;;;120.88;97.93;;;;;;;;;;4991670;28;20021;-73
2023/12/17 00:27:18;;;;;;;91.93;77.18;;;;;;;;;;4990011;28;20017;-74
2023/12/17 00:29:43;;;;;;;83.18;66.60;;;;;;;;;;5008521;28;20045;-74
2023/12/17 00:32:08;;;;;;;71.97;57.17;;;;;;;;;;5008943;28;20025;-75
2023/12/17 00:34:34;;;;;;;73.65;61.22;;;;;;;;;;5009732;28;20476;-73
2023/12/17 00:36:59;;;;;;;80.53;62.20;;;;;;;;;;5009751;28;20566;-73
2023/12/17 00:39:25;;;;;;;92.50;69.38;;;;;;;;;;5014885;28;20033;-72
2023/12/17 00:41:50;;;;;;;110.45;79.45;;;;;;;;;;5021213;28;20037;-72
2023/12/17 00:44:16;;;;;;;104.03;77.70;;;;;;;;;;5023775;28;20087;-73
2023/12/17 00:46:41;;;;;;;79.82;61.38;;;;;;;;;;5009959;28;20456;-73
2023/12/17 00:49:06;;;;;;;64.60;51.45;;;;;;;;;;5017437;28;20041;-73
2023/12/17 00:51:32;;;;;;;69.47;52.58;;;;;;;;;;5013568;28;20131;-73
2023/12/17 00:53:57;;;;;;;57.35;47.85;;;;;;;;;;5019974;28;20029;-74
2023/12/17 00:56:22;;;;;;;61.08;48.67;;;;;;;;;;5005689;28;20420;-73
2023/12/17 00:58:48;;;;;;;72.75;58.70;;;;;;;;;;5007429;28;20144;-73
2023/12/17 01:01:13;;;;;;;120.60;92.28;;;;;;;;;;5008855;28;20025;-73
2023/12/17 01:03:38;;;;;;;76.35;61.05;;;;;;;;;;5021306;28;20029;-73
2023/12/17 01:06:04;;;;;;;81.88;61.65;;;;;;;;;;5015163;28;20525;-72
2023/12/17 01:08:29;;;;;;;84.20;65.00;;;;;;;;;;5006591;28;20372;-75
2023/12/17 01:10:55;;;;;;;91.40;71.00;;;;;;;;;;5007239;28;20029;-72
2023/12/17 01:13:20;;;;;;;103.30;83.43;;;;;;;;;;5009449;28;20025;-72
2023/12/17 01:15:45;;;;;;;121.10;90.30;;;;;;;;;;5015753;28;20044;-74
2023/12/17 01:18:10;;;;;;;87.07;69.38;;;;;;;;;;5006543;28;20079;-73
2023/12/17 01:20:36;;;;;;;68.47;55.00;;;;;;;;;;5004048;28;20445;-73
2023/12/17 01:23:01;;;;;;;64.20;50.55;;;;;;;;;;5021220;28;20534;-74
2023/12/17 01:25:27;;;;;;;65.93;54.40;;;;;;;;;;5020248;28;20047;-73
2023/12/17 01:27:52;;;;;;;74.65;59.50;;;;;;;;;;5021605;28;20021;-73
2023/12/17 01:30:17;;;;;;;80.47;66.10;;;;;;;;;;5009536;28;20462;-73
2023/12/17 01:32:43;;;;;;;99.15;74.80;;;;;;;;;;4994973;28;20360;-73
2023/12/17 01:35:08;;;;;;;64.65;51.47;;;;;;;;;;5019764;28;20104;-73
2023/12/17 01:37:34;;;;;;;57.50;46.53;;;;;;;;;;5020085;28;20060;-72
2023/12/17 01:39:59;;;;;;;43.58;37.45;;;;;;;;;;5021111;28;20036;-74
2023/12/17 01:42:24;;;;;;;59.17;48.63;;;;;;;;;;5021655;28;20124;-73
2023/12/17 01:44:50;;;;;;;90.72;71.80;;;;;;;;;;5021689;28;20459;-75
2023/12/17 01:47:15;;;;;;;93.15;73.97;;;;;;;;;;5020632;28;20075;-74
2023/12/17 01:49:41;;;;;;;96.18;76.10;;;;;;;;;;5009615;28;20486;-73
2023/12/17 01:52:06;;;;;;;88.68;70.72;;;;;;;;;;5019112;28;20036;-73
2023/12/17 01:54:32;;;;;;;103.35;81.15;;;;;;;;;;5020205;28;20440;-72
2023/12/17 01:56:57;;;;;;;103.53;84.28;;;;;;;;;;4998573;28;20083;-72
2023/12/17 01:59:23;;;;;;;83.03;67.18;;;;;;;;;;5010542;28;20125;-72
2023/12/17 02:01:49;;;;;;;86.22;68.78;;;;;;;;;;5017148;28;20407;-73
2023/12/17 02:04:15;;;;;;;85.68;70.28;;;;;;;;;;5020722;28;20030;-74
2023/12/17 02:06:40;;;;;;;74.78;60.08;;;;;;;;;;5020634;28;20040;-72
2023/12/17 02:09:05;;;;;;;73.57;59.30;;;;;;;;;;5019571;28;20099;-73
2023/12/17 02:11:31;;;;;;;66.03;54.08;;;;;;;;;;5018343;28;20028;-71
2023/12/17 02:13:56;;;;;;;62.47;53.58;;;;;;;;;;5019750;28;20527;-72
2023/12/17 02:16:21;;;;;;;61.00;50.83;;;;;;;;;;5009116;28;20041;-73
2023/12/17 02:18:47;;;;;;;60.63;49.90;;;;;;;;;;5004195;28;20140;-73
2023/12/17 02:21:12;;;;;;;69.25;57.95;;;;;;;;;;5009543;28;20445;-73
2023/12/17 02:23:37;;;;;;;64.20;52.83;;;;;;;;;;5019857;28;20095;-73
2023/12/17 02:26:03;;;;;;;65.85;55.67;;;;;;;;;;5019865;28;20036;-73
2023/12/17 02:28:29;;;;;;;69.05;57.75;;;;;;;;;;5007918;28;20042;-73
2023/12/17 02:30:54;;;;;;;58.50;47.92;;;;;;;;;;5019920;28;21097;-71
2023/12/17 02:33:19;;;;;;;62.17;49.15;;;;;;;;;;5019371;28;20500;-73
2023/12/17 02:35:44;;;;;;;59.05;48.83;;;;;;;;;;5003968;28;20033;-73
2023/12/17 02:38:10;;;;;;;60.25;48.38;;;;;;;;;;5005579;28;20061;-74
2023/12/17 02:40:35;;;;;;;59.13;49.70;;;;;;;;;;5004047;28;20025;-72
2023/12/17 02:43:00;;;;;;;60.50;51.72;;;;;;;;;;5008271;28;20087;-72
2023/12/17 02:45:26;;;;;;;59.65;50.30;;;;;;;;;;5024675;28;20025;-71
2023/12/17 02:47:51;;;;;;;59.28;50.83;;;;;;;;;;5024459;28;20036;-74
2023/12/17 02:50:17;;;;;;;50.20;42.28;;;;;;;;;;5023992;28;20021;-74
2023/12/17 02:52:42;;;;;;;47.80;41.08;;;;;;;;;;5024154;28;20038;-72
2023/12/17 02:55:09;;;;;;;45.78;39.00;;;;;;;;;;5023920;28;20029;-73
2023/12/17 02:57:34;;;;;;;54.33;45.55;;;;;;;;;;5023736;28;20030;-73
2023/12/17 02:59:59;;;;;;;50.05;43.65;;;;;;;;;;5023230;28;20413;-71
2023/12/17 03:02:25;;;;;;;45.65;39.55;;;;;;;;;;5006869;28;20047;-72
2023/12/17 03:04:50;;;;;;;48.47;41.92;;;;;;;;;;5023883;28;20083;-72
2023/12/17 03:07:17;;;;;;;45.15;37.80;;;;;;;;;;5023496;28;20033;-72
2023/12/17 03:09:42;;;;;;;46.15;40.15;;;;;;;;;;5008236;28;20046;-76
2023/12/17 03:12:07;;;;;;;43.38;38.55;;;;;;;;;;5023220;28;20056;-73
2023/12/17 03:14:33;;;;;;;43.15;37.55;;;;;;;;;;5008936;28;20065;-73
2023/12/17 03:16:58;;;;;;;44.50;38.42;;;;;;;;;;5013356;28;20780;-73
2023/12/17 03:19:23;;;;;;;47.08;40.97;;;;;;;;;;5012238;28;20021;-71
2023/12/17 03:21:49;;;;;;;46.40;39.20;;;;;;;;;;5010564;28;20121;-72
2023/12/17 03:24:14;;;;;;;49.10;40.13;;;;;;;;;;5022735;28;20444;-72
2023/12/17 03:26:40;;;;;;;48.22;41.25;;;;;;;;;;5003808;28;20137;-72
2023/12/17 03:29:05;;;;;;;44.63;38.47;;;;;;;;;;5011520;28;20034;-73
2023/12/17 03:31:30;;;;;;;37.67;31.63;;;;;;;;;;5023286;28;20103;-73
2023/12/17 03:33:56;;;;;;;36.78;32.08;;;;;;;;;;5023481;28;20029;-73
2023/12/17 03:36:21;;;;;;;38.22;32.90;;;;;;;;;;5022960;28;20774;-74
2023/12/17 03:38:47;;;;;;;48.92;40.50;;;;;;;;;;5022706;28;20120;-73
2023/12/17 03:41:25;;;;;;;72.80;58.17;;;;;;;;;;5023940;28;20400;-72
2023/12/17 03:43:51;;;;;;;53.97;43.80;;;;;;;;;;5007889;28;20029;-72
2023/12/17 03:46:17;;;;;;;42.22;34.65;;;;;;;;;;5023009;28;20032;-73
2023/12/17 03:48:42;;;;;;;30.88;27.08;;;;;;;;;;5012622;28;20045;-73
2023/12/17 03:51:08;;;;;;;29.63;26.38;;;;;;;;;;5009520;28;20037;-73
2023/12/17 03:53:33;;;;;;;28.88;25.77;;;;;;;;;;5023352;28;20325;-73
2023/12/17 03:55:58;;;;;;;26.60;23.80;;;;;;;;;;5022733;28;20049;-73
2023/12/17 03:58:24;;;;;;;28.27;24.63;;;;;;;;;;5022334;28;20044;-72
2023/12/17 04:00:49;;;;;;;24.42;21.77;;;;;;;;;;5021023;28;20032;-72
2023/12/17 04:03:14;;;;;;;26.30;23.48;;;;;;;;;;5021125;28;20465;-73
2023/12/17 04:05:40;;;;;;;27.15;24.00;;;;;;;;;;5018501;28;20040;-73
2023/12/17 04:08:06;;;;;;;25.27;22.52;;;;;;;;;;5002633;28;20053;-71
2023/12/17 04:10:32;;;;;;;25.98;22.40;;;;;;;;;;5007398;28;20037;-72
2023/12/17 04:12:57;;;;;;;32.60;28.35;;;;;;;;;;5023241;28;20022;-74
2023/12/17 04:15:22;;;;;;;75.78;59.80;;;;;;;;;;5022932;28;20112;-73
2023/12/17 04:17:49;;;;;;;56.92;43.63;;;;;;;;;;5025018;28;20029;-73
2023/12/17 04:20:14;;;;;;;60.20;50.42;;;;;;;;;;5023516;28;20187;-74
2023/12/17 04:22:41;;;;;;;35.55;29.95;;;;;;;;;;5022882;28;20481;-73
2023/12/17 04:25:06;;;;;;;37.05;31.83;;;;;;;;;;5022453;28;20083;-75
2023/12/17 04:27:31;;;;;;;45.25;38.97;;;;;;;;;;5021248;28;20104;-73
2023/12/17 04:29:57;;;;;;;38.33;32.67;;;;;;;;;;5021349;28;20029;-73
2023/12/17 04:32:22;;;;;;;35.22;31.00;;;;;;;;;;5014745;28;20353;-73
2023/12/17 04:34:48;;;;;;;32.05;28.52;;;;;;;;;;5008237;28;20310;-73
2023/12/17 04:37:13;;;;;;;34.78;30.73;;;;;;;;;;5021222;28;20021;-73
2023/12/17 04:39:39;;;;;;;32.53;28.38;;;;;;;;;;5009756;28;20040;-73
2023/12/17 04:42:04;;;;;;;32.55;28.67;;;;;;;;;;5020435;28;20034;-73
2023/12/17 04:44:29;;;;;;;33.58;29.98;;;;;;;;;;5022279;28;20017;-73
2023/12/17 04:46:57;;;;;;;32.30;28.52;;;;;;;;;;5020927;28;20033;-73
2023/12/17 04:49:22;;;;;;;33.40;29.48;;;;;;;;;;5006776;28;20065;-72
2023/12/17 04:51:48;;;;;;;31.48;27.95;;;;;;;;;;5020996;28;20052;-73
2023/12/17 04:54:15;;;;;;;31.60;27.70;;;;;;;;;;5007256;28;20037;-72
2023/12/17 04:56:40;;;;;;;32.72;28.30;;;;;;;;;;5020715;28;20060;-74
2023/12/17 04:59:05;;;;;;;30.70;27.42;;;;;;;;;;5006910;28;20061;-74
2023/12/17 05:01:31;;;;;;;28.33;24.38;;;;;;;;;;5013052;28;20033;-72
2023/12/17 05:03:56;;;;;;;29.63;25.98;;;;;;;;;;5015955;28;20048;-72
2023/12/17 05:06:21;;;;;;;35.67;31.08;;;;;;;;;;5019852;28;20029;-73
2023/12/17 05:08:47;;;;;;;31.27;27.88;;;;;;;;;;5021650;28;20049;-72
2023/12/17 05:11:12;;;;;;;35.60;31.73;;;;;;;;;;5020440;28;20108;-72
2023/12/17 05:13:37;;;;;;;29.52;26.33;;;;;;;;;;5021200;28;20022;-72
2023/12/17 05:16:03;;;;;;;29.45;26.30;;;;;;;;;;5012024;28;20025;-72
2023/12/17 05:18:28;;;;;;;28.27;25.27;;;;;;;;;;5019759;28;20032;-73
2023/12/17 05:20:54;;;;;;;28.17;25.27;;;;;;;;;;5021191;28;20029;-73
2023/12/17 05:23:19;;;;;;;25.08;22.45;;;;;;;;;;5021168;28;20028;-75
2023/12/17 05:25:44;;;;;;;25.15;22.50;;;;;;;;;;5007796;28;20029;-72
2023/12/17 05:28:11;;;;;;;25.58;22.88;;;;;;;;;;4999395;28;20116;-72
2023/12/17 05:30:37;;;;;;;36.80;32.00;;;;;;;;;;5016300;28;20038;-72
2023/12/17 05:33:02;;;;;;;87.47;79.30;;;;;;;;;;5007642;28;20345;-74
2023/12/17 05:35:28;;;;;;;82.13;73.55;;;;;;;;;;5020494;28;20032;-72
2023/12/17 05:37:53;;;;;;;485.33;412.90;;;;;;;;;;5020849;28;20037;-75
2023/12/17 05:40:19;;;;;;;103.68;85.78;;;;;;;;;;5015264;28;20489;-74
2023/12/17 05:42:44;;;;;;;124.05;106.95;;;;;;;;;;5006451;28;20032;-72
2023/12/17 05:45:10;;;;;;;39.97;35.42;;;;;;;;;;5006094;28;20033;-71
2023/12/17 05:47:35;;;;;;;60.05;47.15;;;;;;;;;;5018709;28;20037;-70
2023/12/17 05:50:01;;;;;;;48.05;36.80;;;;;;;;;;5019719;28;20420;-70
2023/12/17 05:52:27;;;;;;;64.07;50.05;;;;;;;;;;5018533;28;20444;-73
2023/12/17 05:54:52;;;;;;;59.30;51.47;;;;;;;;;;5018903;28;20033;-72
2023/12/17 05:57:18;;;;;;;53.72;47.55;;;;;;;;;;5002714;28;20142;-73
2023/12/17 05:59:43;;;;;;;37.92;33.88;;;;;;;;;;5009167;28;20030;-72
2023/12/17 06:02:08;;;;;;;28.27;25.27;;;;;;;;;;5019607;28;20033;-72
2023/12/17 06:04:34;;;;;;;41.33;36.08;;;;;;;;;;5018680;28;20030;-76
2023/12/17 06:06:59;;;;;;;48.00;38.42;;;;;;;;;;5007774;28;20025;-72
2023/12/17 06:09:25;;;;;;;36.92;32.50;;;;;;;;;;5014818;28;20132;-73
2023/12/17 06:11:50;;;;;;;202.82;145.55;;;;;;;;;;5003515;28;20079;-71
2023/12/17 06:14:17;;;;;;;90.90;66.07;;;;;;;;;;5020086;28;20021;-71
2023/12/17 06:16:42;;;;;;;37.58;31.33;;;;;;;;;;5024921;28;20017;-72
2023/12/17 06:19:08;;;;;;;43.75;34.63;;;;;;;;;;5021348;28;20487;-71
2023/12/17 06:21:34;;;;;;;178.27;112.25;;;;;;;;;;5011319;28;20462;-71
2023/12/17 06:24:02;;;;;;;262.98;169.10;;;;;;;;;;5010559;28;20083;-72
2023/12/17 06:26:27;;;;;;;428.98;220.95;;;;;;;;;;5011538;28;20055;-71
2023/12/17 06:28:53;;;;;;;143.80;83.68;;;;;;;;;;5011229;28;20120;-72
2023/12/17 06:31:18;;;;;;;49.45;37.05;;;;;;;;;;5011652;28;20384;-73
2023/12/17 06:33:43;;;;;;;38.53;33.55;;;;;;;;;;5011106;28;20033;-71
2023/12/17 06:36:09;;;;;;;280.88;192.82;;;;;;;;;;4999722;28;20079;-72
2023/12/17 06:38:34;;;;;;;378.50;260.38;;;;;;;;;;5011859;28;20041;-74
2023/12/17 06:41:00;;;;;;;383.52;271.75;;;;;;;;;;5012557;28;20029;-71
2023/12/17 06:43:25;;;;;;;138.23;100.30;;;;;;;;;;5012747;28;20440;-72
2023/12/17 06:45:51;;;;;;;207.68;145.68;;;;;;;;;;5012653;28;20038;-72
2023/12/17 06:48:17;;;;;;;242.85;181.00;;;;;;;;;;5012890;28;20037;-73
2023/12/17 06:50:42;;;;;;;181.13;136.65;;;;;;;;;;5012109;28;20487;-73
2023/12/17 06:53:08;;;;;;;146.32;122.95;;;;;;;;;;5010985;28;20713;-73
2023/12/17 06:55:33;;;;;;;189.20;159.15;;;;;;;;;;5012246;28;20037;-73
2023/12/17 06:57:59;;;;;;;109.72;96.15;;;;;;;;;;5011394;28;20029;-73
2023/12/17 07:00:24;;;;;;;63.00;56.13;;;;;;;;;;4996688;28;20461;-72
2023/12/17 07:02:50;;;;;;;76.45;66.47;;;;;;;;;;4996736;28;20079;-72
2023/12/17 07:05:16;;;;;;;104.85;92.75;;;;;;;;;;5011834;28;20017;-73
2023/12/17 07:07:46;;;;;;;87.85;78.18;;;;;;;;;;5010650;28;20038;-73
2023/12/17 07:10:12;;;;;;;;;;;;;;;;;;4996149;28;20129;-73
2023/12/17 07:12:38;;;;;;;69.47;61.45;;;;;;;;;;5012227;28;20018;-73
2023/12/17 07:15:03;;;;;;;74.55;62.35;;;;;;;;;;5011520;28;20060;-72
2023/12/17 07:17:30;;;;;;;53.25;45.58;;;;;;;;;;5011338;28;20053;-72
2023/12/17 07:19:55;;;;;;;61.85;53.53;;;;;;;;;;5011369;28;20025;-72
2023/12/17 07:22:22;;;;;;;59.95;52.97;;;;;;;;;;5012256;28;20295;-73
2023/12/17 07:24:48;;;;;;;46.40;41.50;;;;;;;;;;5009405;28;20060;-73
2023/12/17 07:27:14;;;;;;;43.47;38.88;;;;;;;;;;5005759;28;20357;-73
2023/12/17 07:29:40;;;;;;;50.97;45.53;;;;;;;;;;5007322;28;20039;-72
2023/12/17 07:32:05;;;;;;;47.72;42.53;;;;;;;;;;5007417;28;20025;-72
2023/12/17 07:34:31;;;;;;;42.33;37.85;;;;;;;;;;5007369;28;20028;-72
2023/12/17 07:36:56;;;;;;;32.83;29.52;;;;;;;;;;5009074;28;20025;-72
2023/12/17 07:39:22;;;;;;;41.78;37.75;;;;;;;;;;5006681;28;20061;-72
2023/12/17 07:41:47;;;;;;;39.30;35.40;;;;;;;;;;5006607;28;21061;-72
2023/12/17 07:44:12;;;;;;;37.50;33.60;;;;;;;;;;5007698;28;20037;-72
2023/12/17 07:46:38;;;;;;;34.47;30.88;;;;;;;;;;5008319;28;20086;-73
2023/12/17 07:49:03;;;;;;;36.28;32.55;;;;;;;;;;5008005;28;20171;-72
2023/12/17 07:51:29;;;;;;;32.80;29.40;;;;;;;;;;5007674;28;20141;-71
2023/12/17 07:53:54;;;;;;;37.78;33.97;;;;;;;;;;4986291;28;20449;-73
2023/12/17 07:56:20;;;;;;;33.33;29.17;;;;;;;;;;4994659;28;20053;-73
2023/12/17 07:58:45;;;;;;;35.53;31.73;;;;;;;;;;5004006;28;20152;-70
2023/12/17 08:01:10;;;;;;;45.78;40.78;;;;;;;;;;5005235;28;20036;-73
2023/12/17 08:03:36;;;;;;;167.20;101.30;;;;;;;;;;5003207;28;20042;-70
2023/12/17 08:06:01;;;;;;;111.20;73.35;;;;;;;;;;4996322;28;20033;-72
2023/12/17 08:08:27;;;;;;;123.35;76.68;;;;;;;;;;4997709;28;20495;-71
2023/12/17 08:10:53;;;;;;;178.68;98.78;;;;;;;;;;5003286;28;20048;-72
2023/12/17 08:13:18;;;;;;;109.20;65.75;;;;;;;;;;5005664;28;20480;-71
2023/12/17 08:15:44;;;;;;;109.03;67.55;;;;;;;;;;4997401;28;20319;-71
2023/12/17 08:18:09;;;;;;;69.88;48.35;;;;;;;;;;4996231;28;20100;-70
2023/12/17 08:20:35;;;;;;;108.95;66.68;;;;;;;;;;5002583;28;20535;-69
2023/12/17 08:23:00;;;;;;;159.18;89.10;;;;;;;;;;4998376;28;20032;-72
2023/12/17 08:25:26;;;;;;;136.38;81.10;;;;;;;;;;5005711;28;20091;-72
2023/12/17 08:27:51;;;;;;;253.50;140.45;;;;;;;;;;5008042;28;20183;-69
2023/12/17 08:30:17;;;;;;;208.63;115.88;;;;;;;;;;5006459;28;20044;-70
2023/12/17 08:32:44;;;;;;;34.03;27.13;;;;;;;;;;5008067;28;20124;-70
2023/12/17 08:35:09;;;;;;;46.38;37.63;;;;;;;;;;5021512;28;20044;-72
2023/12/17 08:37:35;;;;;;;105.63;66.22;;;;;;;;;;5014359;28;20037;-74
2023/12/17 08:40:01;;;;;;;80.57;51.47;;;;;;;;;;5013206;28;20941;-71
2023/12/17 08:42:27;;;;;;;53.80;38.10;;;;;;;;;;5020936;28;20441;-73
2023/12/17 08:44:52;;;;;;;197.07;113.45;;;;;;;;;;5020778;28;20035;-71
2023/12/17 08:47:18;;;;;;;144.30;86.00;;;;;;;;;;5008570;28;20021;-70
2023/12/17 08:49:43;;;;;;;137.18;82.22;;;;;;;;;;5020801;28;20345;-71
2023/12/17 08:52:08;;;;;;;58.35;42.17;;;;;;;;;;5002807;28;20033;-69
2023/12/17 08:54:34;;;;;;;62.60;43.42;;;;;;;;;;5016794;28;20452;-71
2023/12/17 08:56:59;;;;;;;108.90;67.05;;;;;;;;;;5021204;28;20040;-73
2023/12/17 08:59:25;;;;;;;215.52;125.72;;;;;;;;;;5019979;28;20048;-71
2023/12/17 09:01:50;;;;;;;276.98;150.32;;;;;;;;;;5020426;28;20022;-70
2023/12/17 09:04:17;;;;;;;245.88;136.88;;;;;;;;;;5021777;28;20095;-71
2023/12/17 09:06:46;;;;;;;120.50;78.38;;;;;;;;;;5010072;28;20029;-70
2023/12/17 09:09:12;;;;;;;101.57;69.67;;;;;;;;;;5018373;28;20368;-70
2023/12/17 09:11:37;;;;;;;358.30;219.57;;;;;;;;;;5006825;28;20021;-69
2023/12/17 09:14:03;;;;;;;375.48;208.98;;;;;;;;;;5007852;28;20467;-70
2023/12/17 09:16:28;;;;;;;106.53;64.72;;;;;;;;;;5020227;28;20064;-71
2023/12/17 09:18:53;;;;;;;33.83;28.48;;;;;;;;;;5019981;28;20039;-71
2023/12/17 09:21:19;;;;;;;27.65;24.85;;;;;;;;;;5014318;28;20100;-74
2023/12/17 09:23:44;;;;;;;28.40;25.58;;;;;;;;;;5016491;28;20059;-71
2023/12/17 09:26:09;;;;;;;35.95;32.25;;;;;;;;;;5017092;28;20437;-72
2023/12/17 09:28:35;;;;;;;60.90;45.83;;;;;;;;;;5006495;28;20038;-72
2023/12/17 09:31:01;;;;;;;30.63;27.33;;;;;;;;;;5019207;28;20603;-71
2023/12/17 09:33:26;;;;;;;39.35;30.00;;;;;;;;;;5013776;28;20025;-73
2023/12/17 09:35:51;;;;;;;149.75;97.63;;;;;;;;;;5007714;28;20099;-72
2023/12/17 09:38:17;;;;;;;213.00;140.05;;;;;;;;;;5007858;28;20033;-71
2023/12/17 09:40:46;;;;;;;198.52;137.70;;;;;;;;;;5007025;28;20030;-71
2023/12/17 09:43:12;;;;;;;176.82;128.18;;;;;;;;;;5005889;28;20538;-70
2023/12/17 09:45:38;;;;;;;53.03;44.38;;;;;;;;;;5005851;28;20029;-73
2023/12/17 09:48:03;;;;;;;92.90;83.10;;;;;;;;;;5006396;28;20036;-71
2023/12/17 09:50:29;;;;;;;98.78;71.70;;;;;;;;;;5006149;28;20029;-73
2023/12/17 09:52:54;;;;;;;96.63;64.93;;;;;;;;;;5005526;28;20053;-71
2023/12/17 09:55:20;;;;;;;106.95;82.65;;;;;;;;;;5001384;28;20031;-74
2023/12/17 09:57:46;;;;;;;80.18;61.10;;;;;;;;;;5006055;28;20026;-74
2023/12/17 10:00:12;;;;;;;82.18;49.67;;;;;;;;;;5018601;28;20427;-71
2023/12/17 10:02:38;;;;;;;75.65;50.20;;;;;;;;;;5010269;28;20468;-73
2023/12/17 10:05:05;;;;;;;61.28;38.05;;;;;;;;;;5009341;28;20033;-74
2023/12/17 10:07:31;;;;;;;53.55;41.00;;;;;;;;;;5004068;28;20030;-74
2023/12/17 10:09:56;;;;;;;34.00;28.75;;;;;;;;;;5003745;28;20541;-72
2023/12/17 10:12:22;;;;;;;31.75;28.42;;;;;;;;;;5006642;28;20033;-72
2023/12/17 10:14:47;;;;;;;39.58;35.28;;;;;;;;;;5014579;28;20029;-74
2023/12/17 10:17:12;;;;;;;28.20;24.98;;;;;;;;;;5020304;28;20021;-72
2023/12/17 10:19:38;;;;;;;40.78;33.92;;;;;;;;;;5010690;28;23119;-74
2023/12/17 10:22:07;;;;;;;38.70;34.50;;;;;;;;;;5013820;28;20453;-73
2023/12/17 10:24:41;;;;;;;79.77;56.70;;;;;;;;;;5016932;28;20021;-74
2023/12/17 10:27:24;;;;;;;43.13;33.80;;;;;;;;;;5019684;28;20257;-73
2023/12/17 10:29:50;;;;;;;41.78;31.48;;;;;;;;;;5017825;28;20043;-73
2023/12/17 10:32:19;;;;;;;45.50;38.10;;;;;;;;;;5017703;28;20041;-74
2023/12/17 10:34:45;;;;;;;123.13;75.10;;;;;;;;;;5019164;28;20079;-74
2023/12/17 10:37:10;;;;;;;32.35;28.02;;;;;;;;;;5011965;28;20025;-73
2023/12/17 10:39:36;;;;;;;47.92;36.75;;;;;;;;;;5006201;28;20049;-74
2023/12/17 10:42:01;;;;;;;31.23;27.88;;;;;;;;;;5008977;28;20091;-72
2023/12/17 10:44:28;;;;;;;53.42;47.58;;;;;;;;;;5019277;28;20078;-72
2023/12/17 10:46:53;;;;;;;42.65;38.10;;;;;;;;;;5020566;28;20070;-73
2023/12/17 10:49:19;;;;;;;33.13;29.75;;;;;;;;;;5006748;28;20129;-73
2023/12/17 10:51:45;;;;;;;39.45;35.22;;;;;;;;;;5021129;28;20030;-73
2023/12/17 10:54:13;;;;;;;41.30;31.30;;;;;;;;;;5015757;28;20026;-74
2023/12/17 10:56:41;;;;;;;93.70;65.18;;;;;;;;;;5004865;28;20088;-73
2023/12/17 10:59:27;;;;;;;29.70;26.45;;;;;;;;;;5006846;28;20025;-74
2023/12/17 11:01:55;;;;;;;28.20;25.20;;;;;;;;;;5007825;28;20038;-75
2023/12/17 11:04:21;;;;;;;30.35;27.15;;;;;;;;;;5007904;28;20040;-73
2023/12/17 11:06:46;;;;;;;57.47;45.33;;;;;;;;;;5015331;28;20105;-74
2023/12/17 11:09:11;;;;;;;48.67;43.42;;;;;;;;;;5022369;28;20358;-74
2023/12/17 11:11:40;;;;;;;34.80;31.00;;;;;;;;;;5021702;28;20637;-74
2023/12/17 11:14:05;;;;;;;42.28;37.80;;;;;;;;;;5025159;28;20025;-72
2023/12/17 11:16:31;;;;;;;27.92;25.10;;;;;;;;;;5020411;28;22770;-73
2023/12/17 11:19:00;;;;;;;30.83;27.52;;;;;;;;;;5008347;28;20087;-73
2023/12/17 11:21:27;;;;;;;34.78;31.15;;;;;;;;;;5008214;28;20026;-74
2023/12/17 11:23:52;;;;;;;26.30;23.45;;;;;;;;;;5009322;28;20037;-73
2023/12/17 11:26:18;;;;;;;31.40;28.15;;;;;;;;;;5012672;28;20398;-73
2023/12/17 11:28:48;;;;;;;30.35;27.38;;;;;;;;;;4997030;28;20452;-74
2023/12/17 11:31:13;;;;;;;31.90;28.48;;;;;;;;;;5007164;28;20029;-72
2023/12/17 11:33:39;;;;;;;28.48;25.48;;;;;;;;;;5016544;28;20088;-73
2023/12/17 11:36:05;;;;;;;29.77;26.08;;;;;;;;;;5008970;28;20094;-72
2023/12/17 11:38:31;;;;;;;40.13;30.90;;;;;;;;;;5013810;28;20052;-74
2023/12/17 11:40:56;;;;;;;44.92;33.10;;;;;;;;;;5014625;28;20834;-74
2023/12/17 11:43:23;;;;;;;39.25;34.22;;;;;;;;;;5011313;28;20028;-75
2023/12/17 11:45:49;;;;;;;37.05;33.25;;;;;;;;;;5018985;28;20035;-74
2023/12/17 11:48:19;;;;;;;42.60;38.00;;;;;;;;;;5022222;28;20032;-73
2023/12/17 11:50:46;;;;;;;46.20;40.17;;;;;;;;;;5010836;28;20087;-72
2023/12/17 11:53:30;;;;;;;43.90;39.15;;;;;;;;;;5009253;28;20030;-76
2023/12/17 11:55:56;;;;;;;41.58;36.80;;;;;;;;;;5013374;28;20037;-73
2023/12/17 11:58:22;;;;;;;53.35;37.53;;;;;;;;;;5010027;28;20123;-71
2023/12/17 12:01:05;;;;;;;36.60;31.10;;;;;;;;;;5015713;28;20076;-73
2023/12/17 12:03:30;;;;;;;38.30;33.40;;;;;;;;;;5007714;28;20074;-73
2023/12/17 12:05:57;;;;;;;36.90;33.13;;;;;;;;;;5013650;28;20105;-74
2023/12/17 12:08:22;;;;;;;42.03;37.38;;;;;;;;;;5007775;28;20053;-74
2023/12/17 12:10:48;;;;;;;34.55;30.98;;;;;;;;;;5009476;28;20044;-74
2023/12/17 12:13:14;;;;;;;36.72;32.47;;;;;;;;;;5014622;28;20449;-73
2023/12/17 12:15:40;;;;;;;32.10;28.73;;;;;;;;;;5017793;28;20433;-75
2023/12/17 12:18:18;;;;;;;39.20;35.15;;;;;;;;;;5022097;28;20034;-73
2023/12/17 12:20:43;;;;;;;37.35;33.42;;;;;;;;;;5022510;28;20032;-74
2023/12/17 12:23:09;;;;;;;50.72;41.75;;;;;;;;;;5013027;28;20033;-80
2023/12/17 12:25:35;;;;;;;30.45;27.15;;;;;;;;;;4999836;28;20045;-75
2023/12/17 12:28:01;;;;;;;43.67;32.70;;;;;;;;;;4990530;28;20037;-77
2023/12/17 12:30:29;;;;;;;104.00;61.22;;;;;;;;;;5008117;28;20037;-74
2023/12/17 12:32:54;;;;;;;47.50;34.75;;;;;;;;;;5007179;28;20118;-74
2023/12/17 12:35:29;;;;;;;58.00;35.10;;;;;;;;;;5008975;28;20109;-77
2023/12/17 12:37:54;;;;;;;113.35;58.53;;;;;;;;;;5008804;28;20025;-75
2023/12/17 12:40:28;;;;;;;89.18;49.78;;;;;;;;;;5007747;28;20029;-74
2023/12/17 12:43:00;;;;;;;30.48;24.30;;;;;;;;;;5004822;28;20120;-75
2023/12/17 12:45:25;;;;;;;26.02;23.13;;;;;;;;;;4990211;28;20037;-75
2023/12/17 12:47:50;;;;;;;26.15;23.35;;;;;;;;;;5006115;28;20506;-78
2023/12/17 12:50:16;;;;;;;30.20;25.63;;;;;;;;;;4989579;28;20120;-76
2023/12/17 12:52:41;;;;;;;28.42;25.17;;;;;;;;;;4989206;28;20025;-77
2023/12/17 12:55:07;;;;;;;33.15;28.60;;;;;;;;;;5007682;28;20428;-73
2023/12/17 12:57:32;;;;;;;38.20;28.95;;;;;;;;;;5007341;28;20017;-76
2023/12/17 12:59:57;;;;;;;33.95;30.00;;;;;;;;;;5007220;28;21398;-77
2023/12/17 13:02:23;;;;;;;37.13;30.77;;;;;;;;;;5006703;28;20143;-79
2023/12/17 13:04:49;;;;;;;31.52;28.27;;;;;;;;;;5007396;28;20030;-76
2023/12/17 13:07:14;;;;;;;28.33;25.42;;;;;;;;;;5010344;28;20032;-76
2023/12/17 13:09:40;;;;;;;32.05;28.77;;;;;;;;;;5006994;28;20049;-75
2023/12/17 13:12:06;;;;;;;32.65;28.42;;;;;;;;;;5006333;28;20048;-76
2023/12/17 13:14:32;;;;;;;27.38;24.58;;;;;;;;;;5015297;28;20097;-76
2023/12/17 13:16:58;;;;;;;26.77;23.98;;;;;;;;;;5015223;28;20040;-83
2023/12/17 13:19:24;;;;;;;27.17;24.40;;;;;;;;;;5010391;28;20042;-81
2023/12/17 13:21:49;;;;;;;26.63;23.85;;;;;;;;;;5005602;28;20025;-78
2023/12/17 13:24:15;;;;;;;24.92;22.52;;;;;;;;;;5005714;28;20040;-79
2023/12/17 13:26:40;;;;;;;27.30;24.48;;;;;;;;;;5021966;28;20022;-78
2023/12/17 13:29:05;;;;;;;28.85;25.95;;;;;;;;;;5009585;28;20057;-78
2023/12/17 13:31:31;;;;;;;24.40;21.95;;;;;;;;;;5021831;28;20029;-81
2023/12/17 13:33:57;;;;;;;26.13;23.52;;;;;;;;;;5014532;28;20353;-79
2023/12/17 13:36:22;;;;;;;25.35;22.65;;;;;;;;;;5015622;28;20041;-80
2023/12/17 13:38:47;;;;;;;26.23;22.58;;;;;;;;;;5014702;28;20021;-79
2023/12/17 13:41:13;;;;;;;26.83;24.13;;;;;;;;;;4997799;28;20032;-79
2023/12/17 13:43:38;;;;;;;25.58;22.83;;;;;;;;;;5012932;28;20025;-80
2023/12/17 13:46:04;;;;;;;28.98;25.95;;;;;;;;;;5006192;28;20033;-80
2023/12/17 13:48:30;;;;;;;27.48;24.58;;;;;;;;;;5015284;28;20029;-79
2023/12/17 13:50:55;;;;;;;23.73;21.27;;;;;;;;;;5016269;28;20419;-77
2023/12/17 13:53:21;;;;;;;27.65;24.83;;;;;;;;;;5013352;28;20334;-80
2023/12/17 13:55:46;;;;;;;27.63;24.73;;;;;;;;;;5006399;28;20115;-80
2023/12/17 13:58:11;;;;;;;30.25;27.15;;;;;;;;;;5008150;28;20068;-74
2023/12/17 14:00:37;;;;;;;36.80;33.20;;;;;;;;;;5001291;28;20447;-74
2023/12/17 14:03:03;;;;;;;27.42;24.52;;;;;;;;;;4993196;28;20025;-78
2023/12/17 14:05:29;;;;;;;39.20;35.10;;;;;;;;;;5006445;28;20025;-76